OIBA METAR and TAF | Updated Today

OIBA METAR

Abu Musa Island Airport

Observation time: 4:35 hr. ago

OIBA 061500Z 09004KT 8000 NSC 31/26 Q1004

Need help? Read our tutorial on how to read METARs or read the parsed version below.

Abu Musa Island Airport (OIBA) METAR

  • Weather conditions on Thu, 06 Oct 2022 15:00:00 +0000 (4:35 hr. ago):
  • Present conditions: Dry
  • Clouds: No significant clouds are observed
  • Visibility: 8000 meters
  • Wind: 90 degrees at 4 knots
  • Temperature: 31 celsius
  • Dew point: 26 celsius
  • Pressure: 1004 millibars
  • Remarks: None


Useful to know...